JST455 YMML-YPAD
Flight info
| Callsign | JST455 |
|---|---|
| Flight time | 1h 4m |
| Altitude | 32000 |
| Route | PEDNI1/34 PEDNI H345 AD |
| Aircraft | A320/M-SDE3FGHIRWY/LB1 |
Departure
| Time | 2026-05-01 12:39 |
|---|---|
| Airport | Melbourne Airport (YMML) |
Arrival
| Time | 2026-05-01 13:44 |
|---|---|
| Airport | Adelaide International Airport (YPAD) |
| Time | Latitude | Longitude | Altitude | Speed | Heading |
|---|---|---|---|---|---|
| 2026-05-01 11:57 | -37.67131 | 144.84586 | 394 ft | 0 kts | 352° |
| 2026-05-01 12:26 | -37.67144 | 144.84587 | 396 ft | 2 kts | 351° |
| 2026-05-01 12:26 | -37.67159 | 144.84590 | 396 ft | 2 kts | 351° |
| 2026-05-01 12:27 | -37.67174 | 144.84593 | 395 ft | 2 kts | 351° |
| 2026-05-01 12:27 | -37.67196 | 144.84598 | 395 ft | 2 kts | 319° |
| 2026-05-01 12:28 | -37.67202 | 144.84621 | 395 ft | 1 kts | 257° |
| 2026-05-01 12:28 | -37.67201 | 144.84624 | 396 ft | 0 kts | 261° |
| 2026-05-01 12:30 | -37.67205 | 144.84596 | 394 ft | 6 kts | 262° |
| 2026-05-01 12:31 | -37.67207 | 144.84576 | 393 ft | 0 kts | 262° |
| 2026-05-01 12:31 | -37.67210 | 144.84546 | 392 ft | 6 kts | 263° |
| 2026-05-01 12:32 | -37.67205 | 144.84468 | 389 ft | 11 kts | 284° |
| 2026-05-01 12:32 | -37.67254 | 144.84283 | 384 ft | 13 kts | 186° |
| 2026-05-01 12:32 | -37.67353 | 144.84297 | 381 ft | 15 kts | 171° |
| 2026-05-01 12:33 | -37.67467 | 144.84320 | 380 ft | 17 kts | 171° |
| 2026-05-01 12:33 | -37.67593 | 144.84343 | 376 ft | 19 kts | 171° |
| 2026-05-01 12:33 | -37.67729 | 144.84367 | 372 ft | 19 kts | 171° |
| 2026-05-01 12:33 | -37.67869 | 144.84393 | 368 ft | 21 kts | 171° |
| 2026-05-01 12:34 | -37.68026 | 144.84422 | 362 ft | 24 kts | 171° |
| 2026-05-01 12:34 | -37.68180 | 144.84453 | 356 ft | 22 kts | 171° |
| 2026-05-01 12:34 | -37.68309 | 144.84474 | 351 ft | 16 kts | 180° |
| 2026-05-01 12:34 | -37.68415 | 144.84415 | 349 ft | 18 kts | 213° |
| 2026-05-01 12:35 | -37.68518 | 144.84329 | 344 ft | 12 kts | 218° |
| 2026-05-01 12:35 | -37.68551 | 144.84253 | 343 ft | 4 kts | 261° |
| 2026-05-01 12:35 | -37.68551 | 144.84251 | 343 ft | 0 kts | 261° |
| 2026-05-01 12:36 | -37.68551 | 144.84250 | 343 ft | 0 kts | 261° |
| 2026-05-01 12:36 | -37.68556 | 144.84212 | 343 ft | 6 kts | 262° |
| 2026-05-01 12:36 | -37.68562 | 144.84143 | 343 ft | 8 kts | 263° |
| 2026-05-01 12:37 | -37.68549 | 144.84096 | 343 ft | 5 kts | 355° |
| 2026-05-01 12:37 | -37.68546 | 144.84096 | 343 ft | 0 kts | 355° |
| 2026-05-01 12:38 | -37.68545 | 144.84096 | 343 ft | 0 kts | 355° |
| 2026-05-01 12:38 | -37.68382 | 144.84068 | 349 ft | 53 kts | 352° |
| 2026-05-01 12:38 | -37.67817 | 144.83964 | 364 ft | 109 kts | 351° |
| 2026-05-01 12:38 | -37.66912 | 144.83791 | 393 ft | 154 kts | 352° |
| 2026-05-01 12:39 | -37.65803 | 144.83566 | 749 ft | 163 kts | 354° |
| 2026-05-01 12:39 | -37.64677 | 144.83359 | 1297 ft | 166 kts | 354° |
| 2026-05-01 12:39 | -37.63552 | 144.83164 | 1969 ft | 163 kts | 354° |
| 2026-05-01 12:39 | -37.62408 | 144.82971 | 2446 ft | 173 kts | 354° |
| 2026-05-01 12:40 | -37.61168 | 144.82745 | 2840 ft | 190 kts | 353° |
| 2026-05-01 12:40 | -37.59803 | 144.82486 | 3212 ft | 210 kts | 352° |
| 2026-05-01 12:40 | -37.58279 | 144.82188 | 3648 ft | 228 kts | 349° |
| 2026-05-01 12:40 | -37.56767 | 144.81375 | 4128 ft | 249 kts | 323° |
| 2026-05-01 12:41 | -37.55686 | 144.79620 | 4834 ft | 264 kts | 296° |
| 2026-05-01 12:41 | -37.55154 | 144.77438 | 5694 ft | 267 kts | 289° |
| 2026-05-01 12:41 | -37.54653 | 144.75197 | 6544 ft | 268 kts | 290° |
| 2026-05-01 12:41 | -37.54142 | 144.72943 | 7350 ft | 270 kts | 290° |
| 2026-05-01 12:42 | -37.53623 | 144.70677 | 8130 ft | 273 kts | 290° |
| 2026-05-01 12:42 | -37.53098 | 144.68390 | 8872 ft | 276 kts | 290° |
| 2026-05-01 12:42 | -37.52564 | 144.66066 | 9591 ft | 279 kts | 290° |
| 2026-05-01 12:42 | -37.52025 | 144.63725 | 10267 ft | 282 kts | 290° |
| 2026-05-01 12:43 | -37.51464 | 144.61299 | 10676 ft | 296 kts | 290° |
| 2026-05-01 12:43 | -37.50874 | 144.58765 | 11016 ft | 311 kts | 290° |
| 2026-05-01 12:43 | -37.50261 | 144.56110 | 11599 ft | 316 kts | 290° |
| 2026-05-01 12:43 | -37.49650 | 144.53458 | 12259 ft | 318 kts | 290° |
| 2026-05-01 12:44 | -37.49037 | 144.50804 | 12852 ft | 321 kts | 290° |
| 2026-05-01 12:44 | -37.48410 | 144.48096 | 13434 ft | 324 kts | 290° |
| 2026-05-01 12:44 | -37.47139 | 144.42615 | 14626 ft | 329 kts | 290° |
| 2026-05-01 12:45 | -37.45854 | 144.37085 | 15812 ft | 332 kts | 290° |
| 2026-05-01 12:45 | -37.45207 | 144.34311 | 16362 ft | 334 kts | 290° |
| 2026-05-01 12:45 | -37.44548 | 144.31490 | 16907 ft | 336 kts | 290° |
| 2026-05-01 12:46 | -37.43896 | 144.28697 | 17428 ft | 338 kts | 290° |
| 2026-05-01 12:46 | -37.43232 | 144.25859 | 17930 ft | 341 kts | 290° |
| 2026-05-01 12:46 | -37.42553 | 144.22963 | 18437 ft | 344 kts | 290° |
| 2026-05-01 12:46 | -37.42041 | 144.20784 | 18794 ft | 346 kts | 290° |
| 2026-05-01 12:47 | -37.41350 | 144.17837 | 19272 ft | 349 kts | 290° |
| 2026-05-01 12:47 | -37.40670 | 144.14944 | 19738 ft | 351 kts | 290° |
| 2026-05-01 12:47 | -37.39969 | 144.11964 | 20209 ft | 354 kts | 290° |
| 2026-05-01 12:47 | -37.39274 | 144.09016 | 20650 ft | 356 kts | 290° |
| 2026-05-01 12:48 | -37.38562 | 144.05998 | 21096 ft | 359 kts | 290° |
| 2026-05-01 12:48 | -37.37852 | 144.02992 | 21516 ft | 362 kts | 289° |
| 2026-05-01 12:48 | -37.37140 | 143.99983 | 21932 ft | 364 kts | 289° |
| 2026-05-01 12:48 | -37.36412 | 143.96913 | 22344 ft | 367 kts | 289° |
| 2026-05-01 12:49 | -37.35688 | 143.93861 | 22731 ft | 369 kts | 289° |
| 2026-05-01 12:49 | -37.34948 | 143.90741 | 23131 ft | 372 kts | 289° |
| 2026-05-01 12:49 | -37.34216 | 143.87659 | 23525 ft | 374 kts | 289° |
| 2026-05-01 12:49 | -37.33464 | 143.84497 | 23930 ft | 376 kts | 289° |
| 2026-05-01 12:50 | -37.32712 | 143.81334 | 24319 ft | 379 kts | 289° |
| 2026-05-01 12:50 | -37.31963 | 143.78192 | 24709 ft | 380 kts | 289° |
| 2026-05-01 12:50 | -37.31199 | 143.74995 | 25071 ft | 383 kts | 289° |
| 2026-05-01 12:50 | -37.30437 | 143.71808 | 25439 ft | 384 kts | 289° |
| 2026-05-01 12:51 | -37.29667 | 143.68596 | 25803 ft | 386 kts | 289° |
| 2026-05-01 12:51 | -37.28891 | 143.65361 | 26162 ft | 388 kts | 289° |
| 2026-05-01 12:51 | -37.27331 | 143.58872 | 26866 ft | 391 kts | 289° |
| 2026-05-01 12:52 | -37.26550 | 143.55627 | 27198 ft | 393 kts | 289° |
| 2026-05-01 12:52 | -37.24961 | 143.49036 | 27849 ft | 396 kts | 289° |
| 2026-05-01 12:52 | -37.24160 | 143.45723 | 28162 ft | 398 kts | 289° |
| 2026-05-01 12:53 | -37.22556 | 143.39098 | 28786 ft | 401 kts | 289° |
| 2026-05-01 12:53 | -37.21738 | 143.35730 | 29079 ft | 403 kts | 289° |
| 2026-05-01 12:53 | -37.20930 | 143.32405 | 29382 ft | 404 kts | 290° |
| 2026-05-01 12:54 | -37.20111 | 143.29045 | 29675 ft | 405 kts | 290° |
| 2026-05-01 12:54 | -37.18198 | 143.22392 | 30251 ft | 406 kts | 294° |
| 2026-05-01 12:54 | -37.17194 | 143.19107 | 30542 ft | 407 kts | 294° |
| 2026-05-01 12:55 | -37.15178 | 143.12505 | 31108 ft | 408 kts | 294° |
| 2026-05-01 12:55 | -37.14153 | 143.09152 | 31385 ft | 409 kts | 294° |
| 2026-05-01 12:55 | -37.13143 | 143.05850 | 31683 ft | 409 kts | 294° |
| 2026-05-01 12:56 | -37.12133 | 143.02554 | 31987 ft | 408 kts | 294° |
| 2026-05-01 12:56 | -37.11110 | 142.99220 | 32166 ft | 410 kts | 294° |
| 2026-05-01 12:56 | -37.10103 | 142.95941 | 32166 ft | 410 kts | 294° |
| 2026-05-01 12:57 | -37.08049 | 142.89265 | 32164 ft | 410 kts | 294° |
| 2026-05-01 12:57 | -37.04974 | 142.79306 | 32157 ft | 410 kts | 294° |
| 2026-05-01 12:58 | -37.02913 | 142.72643 | 32161 ft | 410 kts | 294° |
| 2026-05-01 12:59 | -36.99823 | 142.62685 | 32154 ft | 409 kts | 294° |
| 2026-05-01 12:59 | -36.96737 | 142.52779 | 32152 ft | 410 kts | 294° |
| 2026-05-01 13:00 | -36.93624 | 142.42822 | 32149 ft | 411 kts | 294° |
| 2026-05-01 13:01 | -36.90507 | 142.32887 | 32145 ft | 411 kts | 294° |
| 2026-05-01 13:02 | -36.87365 | 142.22899 | 32142 ft | 412 kts | 294° |
| 2026-05-01 13:07 | -36.64172 | 141.50253 | 32127 ft | 410 kts | 294° |
| 2026-05-01 13:08 | -36.62048 | 141.43690 | 32110 ft | 410 kts | 294° |
| 2026-05-01 13:08 | -36.59908 | 141.37093 | 32105 ft | 411 kts | 294° |
| 2026-05-01 13:09 | -36.58037 | 141.31339 | 32102 ft | 410 kts | 295° |
| 2026-05-01 13:09 | -36.55906 | 141.24794 | 32094 ft | 410 kts | 295° |
| 2026-05-01 13:10 | -36.53775 | 141.18271 | 32089 ft | 410 kts | 295° |
| 2026-05-01 13:10 | -36.51633 | 141.11720 | 32086 ft | 409 kts | 295° |
| 2026-05-01 13:11 | -36.49488 | 141.05182 | 32079 ft | 409 kts | 295° |
| 2026-05-01 13:11 | -36.47351 | 140.98673 | 32074 ft | 408 kts | 295° |
| 2026-05-01 13:12 | -36.45207 | 140.92157 | 32081 ft | 408 kts | 295° |
| 2026-05-01 13:12 | -36.43060 | 140.85654 | 32069 ft | 408 kts | 295° |
| 2026-05-01 13:13 | -36.40828 | 140.79193 | 32067 ft | 407 kts | 298° |
| 2026-05-01 13:13 | -36.38112 | 140.73055 | 32063 ft | 406 kts | 304° |
| 2026-05-01 13:14 | -36.34897 | 140.67340 | 32059 ft | 404 kts | 309° |
| 2026-05-01 13:14 | -36.31457 | 140.61891 | 32056 ft | 404 kts | 309° |
| 2026-05-01 13:15 | -36.27994 | 140.56416 | 32053 ft | 404 kts | 309° |
| 2026-05-01 13:15 | -36.24527 | 140.50951 | 32054 ft | 404 kts | 309° |
| 2026-05-01 13:16 | -36.21072 | 140.45508 | 32049 ft | 404 kts | 309° |
| 2026-05-01 13:16 | -36.17600 | 140.40050 | 32050 ft | 404 kts | 309° |
| 2026-05-01 13:17 | -36.10706 | 140.29131 | 32039 ft | 404 kts | 307° |
| 2026-05-01 13:18 | -36.06349 | 140.20209 | 32042 ft | 406 kts | 299° |
| 2026-05-01 13:18 | -36.04026 | 140.13925 | 31659 ft | 400 kts | 297° |
| 2026-05-01 13:19 | -36.02894 | 140.10786 | 30982 ft | 400 kts | 297° |
| 2026-05-01 13:19 | -36.01763 | 140.07655 | 30338 ft | 399 kts | 297° |
| 2026-05-01 13:19 | -35.99534 | 140.01477 | 29217 ft | 394 kts | 297° |
| 2026-05-01 13:20 | -35.98410 | 139.98367 | 28670 ft | 391 kts | 297° |
| 2026-05-01 13:20 | -35.97315 | 139.95340 | 28133 ft | 388 kts | 297° |
| 2026-05-01 13:20 | -35.96226 | 139.92335 | 27605 ft | 385 kts | 297° |
| 2026-05-01 13:21 | -35.94055 | 139.86356 | 26526 ft | 380 kts | 297° |
| 2026-05-01 13:21 | -35.92974 | 139.83382 | 26007 ft | 377 kts | 297° |
| 2026-05-01 13:21 | -35.91917 | 139.80476 | 25637 ft | 374 kts | 297° |
| 2026-05-01 13:21 | -35.90861 | 139.77576 | 25303 ft | 373 kts | 297° |
| 2026-05-01 13:22 | -35.89791 | 139.74637 | 24966 ft | 372 kts | 297° |
| 2026-05-01 13:22 | -35.88736 | 139.71745 | 24631 ft | 370 kts | 296° |
| 2026-05-01 13:22 | -35.87696 | 139.68893 | 24297 ft | 368 kts | 297° |
| 2026-05-01 13:22 | -35.86647 | 139.66022 | 23955 ft | 366 kts | 296° |
| 2026-05-01 13:23 | -35.85613 | 139.63193 | 23620 ft | 364 kts | 297° |
| 2026-05-01 13:23 | -35.84572 | 139.60347 | 23284 ft | 362 kts | 297° |
| 2026-05-01 13:23 | -35.83538 | 139.57524 | 22954 ft | 361 kts | 296° |
| 2026-05-01 13:23 | -35.82520 | 139.54746 | 22634 ft | 359 kts | 296° |
| 2026-05-01 13:24 | -35.81486 | 139.51926 | 22313 ft | 358 kts | 297° |
| 2026-05-01 13:24 | -35.80464 | 139.49141 | 21997 ft | 357 kts | 297° |
| 2026-05-01 13:24 | -35.79454 | 139.46391 | 21677 ft | 355 kts | 297° |
| 2026-05-01 13:25 | -35.77433 | 139.40894 | 21049 ft | 351 kts | 297° |
| 2026-05-01 13:25 | -35.76437 | 139.38191 | 20725 ft | 349 kts | 297° |
| 2026-05-01 13:25 | -35.75439 | 139.35486 | 20419 ft | 348 kts | 297° |
| 2026-05-01 13:25 | -35.74429 | 139.32752 | 20109 ft | 346 kts | 298° |
| 2026-05-01 13:26 | -35.73450 | 139.30098 | 19737 ft | 343 kts | 298° |
| 2026-05-01 13:26 | -35.72467 | 139.27440 | 19285 ft | 341 kts | 298° |
| 2026-05-01 13:26 | -35.71493 | 139.24809 | 18858 ft | 339 kts | 298° |
| 2026-05-01 13:26 | -35.70523 | 139.22186 | 18429 ft | 337 kts | 298° |
| 2026-05-01 13:27 | -35.69556 | 139.19577 | 18018 ft | 335 kts | 298° |
| 2026-05-01 13:27 | -35.68591 | 139.16974 | 17581 ft | 333 kts | 298° |
| 2026-05-01 13:27 | -35.66685 | 139.11850 | 16724 ft | 330 kts | 298° |
| 2026-05-01 13:28 | -35.64502 | 139.06984 | 15872 ft | 322 kts | 310° |
| 2026-05-01 13:28 | -35.63070 | 139.04889 | 15435 ft | 319 kts | 316° |
| 2026-05-01 13:29 | -35.60009 | 139.01003 | 14582 ft | 316 kts | 316° |
| 2026-05-01 13:29 | -35.56945 | 138.97150 | 13735 ft | 314 kts | 316° |
| 2026-05-01 13:30 | -35.50906 | 138.89549 | 12167 ft | 308 kts | 316° |
| 2026-05-01 13:31 | -35.47944 | 138.85823 | 11421 ft | 303 kts | 316° |
| 2026-05-01 13:31 | -35.43571 | 138.80331 | 10312 ft | 297 kts | 316° |
| 2026-05-01 13:32 | -35.40729 | 138.76765 | 9793 ft | 286 kts | 316° |
| 2026-05-01 13:33 | -35.36733 | 138.71756 | 9244 ft | 265 kts | 316° |
| 2026-05-01 13:33 | -35.34175 | 138.68556 | 8607 ft | 263 kts | 316° |
| 2026-05-01 13:34 | -35.31630 | 138.65375 | 7968 ft | 261 kts | 316° |
| 2026-05-01 13:34 | -35.29113 | 138.62231 | 7355 ft | 258 kts | 317° |
| 2026-05-01 13:35 | -35.26621 | 138.59122 | 6779 ft | 253 kts | 315° |
| 2026-05-01 13:35 | -35.25397 | 138.57591 | 6631 ft | 245 kts | 317° |
| 2026-05-01 13:35 | -35.23078 | 138.54712 | 6287 ft | 232 kts | 317° |
| 2026-05-01 13:36 | -35.21960 | 138.53323 | 6070 ft | 228 kts | 317° |
| 2026-05-01 13:36 | -35.20867 | 138.51962 | 5923 ft | 221 kts | 318° |
| 2026-05-01 13:36 | -35.18725 | 138.49300 | 5441 ft | 219 kts | 318° |
| 2026-05-01 13:37 | -35.17653 | 138.47967 | 5170 ft | 218 kts | 318° |
| 2026-05-01 13:37 | -35.16602 | 138.46663 | 4903 ft | 218 kts | 318° |
| 2026-05-01 13:37 | -35.15545 | 138.45349 | 4634 ft | 217 kts | 318° |
| 2026-05-01 13:37 | -35.14459 | 138.44066 | 4390 ft | 215 kts | 322° |
| 2026-05-01 13:38 | -35.12099 | 138.41856 | 3907 ft | 213 kts | 327° |
| 2026-05-01 13:38 | -35.10911 | 138.40802 | 3677 ft | 212 kts | 327° |
| 2026-05-01 13:38 | -35.09713 | 138.39737 | 3430 ft | 211 kts | 327° |
| 2026-05-01 13:39 | -35.08530 | 138.38690 | 3192 ft | 210 kts | 327° |
| 2026-05-01 13:39 | -35.07359 | 138.37657 | 3077 ft | 203 kts | 330° |
| 2026-05-01 13:39 | -35.06100 | 138.37138 | 3001 ft | 189 kts | 7° |
| 2026-05-01 13:39 | -35.04973 | 138.37883 | 2979 ft | 192 kts | 44° |
| 2026-05-01 13:40 | -35.04184 | 138.39168 | 2899 ft | 185 kts | 49° |
| 2026-05-01 13:40 | -35.03438 | 138.40431 | 2580 ft | 180 kts | 47° |
| 2026-05-01 13:40 | -35.02699 | 138.41618 | 2263 ft | 172 kts | 46° |
| 2026-05-01 13:40 | -35.01973 | 138.42737 | 1982 ft | 162 kts | 45° |
| 2026-05-01 13:41 | -35.01300 | 138.43755 | 1733 ft | 151 kts | 45° |
| 2026-05-01 13:41 | -35.00674 | 138.44733 | 1493 ft | 139 kts | 46° |
| 2026-05-01 13:41 | -35.00134 | 138.45650 | 1323 ft | 128 kts | 46° |
| 2026-05-01 13:41 | -34.99595 | 138.46493 | 1104 ft | 126 kts | 43° |
| 2026-05-01 13:42 | -34.99010 | 138.47301 | 955 ft | 127 kts | 41° |
| 2026-05-01 13:42 | -34.98416 | 138.48099 | 815 ft | 128 kts | 41° |
| 2026-05-01 13:42 | -34.97822 | 138.48914 | 686 ft | 129 kts | 43° |
| 2026-05-01 13:42 | -34.97237 | 138.49762 | 505 ft | 130 kts | 43° |
| 2026-05-01 13:43 | -34.96649 | 138.50601 | 343 ft | 132 kts | 43° |
| 2026-05-01 13:43 | -34.96046 | 138.51453 | 150 ft | 132 kts | 44° |
| 2026-05-01 13:43 | -34.95464 | 138.52295 | 33 ft | 124 kts | 45° |
| 2026-05-01 13:43 | -34.95068 | 138.52863 | 34 ft | 63 kts | 50° |
| 2026-05-01 13:44 | -34.94864 | 138.53162 | 34 ft | 36 kts | 49° |
| 2026-05-01 13:44 | -34.94703 | 138.53392 | 37 ft | 33 kts | 49° |
| 2026-05-01 13:44 | -34.94597 | 138.53528 | 38 ft | 12 kts | 6° |
| 2026-05-01 13:44 | -34.94536 | 138.53464 | 38 ft | 8 kts | 308° |
| 2026-05-01 13:45 | -34.94497 | 138.53409 | 38 ft | 6 kts | 328° |
| 2026-05-01 13:45 | -34.94454 | 138.53420 | 38 ft | 6 kts | 42° |
| 2026-05-01 13:45 | -34.94421 | 138.53467 | 38 ft | 7 kts | 50° |
| 2026-05-01 13:45 | -34.94385 | 138.53520 | 38 ft | 8 kts | 49° |
| 2026-05-01 13:46 | -34.94346 | 138.53577 | 38 ft | 9 kts | 50° |
| 2026-05-01 13:46 | -34.94302 | 138.53639 | 38 ft | 9 kts | 46° |
| 2026-05-01 13:46 | -34.94242 | 138.53651 | 39 ft | 9 kts | 334° |
| 2026-05-01 13:46 | -34.94183 | 138.53650 | 40 ft | 8 kts | 32° |
| 2026-05-01 13:47 | -34.94144 | 138.53700 | 41 ft | 8 kts | 49° |
| 2026-05-01 13:47 | -34.94112 | 138.53717 | 41 ft | 5 kts | 327° |
| 2026-05-01 13:47 | -34.94079 | 138.53683 | 41 ft | 6 kts | 320° |
| 2026-05-01 13:47 | -34.94060 | 138.53664 | 41 ft | 1 kts | 320° |
| 2026-05-01 13:48 | -34.94056 | 138.53659 | 41 ft | 0 kts | 320° |